Aeroporto :
LOGIN :

Iscrizione | Disclaimer

   EN    FR    IT 

 










Sommario :    VFR   VFR Marginale   IFR   IFR Intensivo   IFR Molto Intensivo
Visibilità : 
Base nubi : 
>= 8 km
>= 3000ft
5 / 8 km
1000 / 3000 ft
1500m / 5 km
500 / 1000 ft
800 / 1500m
200 / 500 ft
< 800m
< 200 ft
Simboli :   Temporali  Nebbia  Neve Forte  Precipitazioni Forti  Vento > 20 kt
SIGMETs :   Varie  Temporali  Ghiacco  Turbolenza  Onda orograficha  Ceneri Vulcaniche






- Altitudine del aeroporto : 821 ft
- Codice IATA : LYS


LFLL - Lyon St Exupéry / Satolas

ULTIMO METAR :
  • 210000Z 16006KT CAVOK 06/03 Q1010 NOSIG

METARs OBSOLETI :
  • 202330Z 15006KT 9999 FEW046 SCT066 06/04 Q1010 NOSIG
  • 202300Z 12007KT 9999 SCT043 BKN056 07/04 Q1010 NOSIG
  • 202230Z 13006KT 9999 SCT036 BKN046 07/04 Q1010 NOSIG
  • 202200Z 13007KT 9999 BKN037 BKN043 07/04 Q1010 NOSIG
  • 202130Z 13006KT 9999 FEW038 BKN047 07/04 Q1010 NOSIG

TAF TAF LFLL
Valido dal 21 a 00 ore il 22 a 06 ore UTC


202300Z 2100/2206 15005KT 8000 SCT040
PROB40
TEMPO 2100/2110 3000 BR
PROB30
TEMPO 2100/2109 0800 BCFG SCT001
TEMPO 2116/2121 18010G20KT -RA BKN035
PROB40
TEMPO 2200/2206 BKN008



MetMap, La meteo Aeronautica in un colpo d'occhio ! - Copyright ORBIFLY Dicembre 2007 - Disclaimer

ORBIFLY MET'MAP TEAM :

Programmazione e sviluppo : Alexandra Zaïnal
Concezione e sviluppo : Baudouin d'Aumeries
Co-Programmazione e sviluppo : Marc-Olivier Méhu
Supporto tecnico e logistico : Manuel Goepfert
Aiuto per la traduzione : Arnaldo La Scala

Contatto : metmap@orbifly.com




FONTI E CREDITI :

   NOAA